createdAt,value
2019-05-01T00:00:16.011Z,8.39
2019-05-01T00:01:09.157Z,8.33
2019-05-01T00:02:09.168Z,8.28
2019-05-01T00:03:09.173Z,8.15
2019-05-01T00:04:09.176Z,8.11
2019-05-01T00:05:09.187Z,8.12
2019-05-01T00:06:09.190Z,8.11
2019-05-01T00:07:09.197Z,8.08
2019-05-01T00:08:09.205Z,8.20
2019-05-01T00:09:09.212Z,8.14
2019-05-01T00:10:09.217Z,8.21
2019-05-01T00:11:09.224Z,8.22
2019-05-01T00:12:09.235Z,8.22
2019-05-01T00:13:09.239Z,8.26
2019-05-01T00:14:09.246Z,8.35
2019-05-01T00:15:09.251Z,8.32
2019-05-01T00:16:09.258Z,8.36
2019-05-01T00:17:09.265Z,8.39
2019-05-01T00:18:09.275Z,8.39
2019-05-01T00:19:09.278Z,8.37
2019-05-01T00:20:09.287Z,8.35
2019-05-01T00:21:09.289Z,8.33
2019-05-01T00:22:09.299Z,8.37
2019-05-01T00:23:09.314Z,8.30
2019-05-01T00:24:09.318Z,8.28
2019-05-01T00:25:09.317Z,8.14
2019-05-01T00:26:09.361Z,8.07
2019-05-01T00:27:09.336Z,8.04
2019-05-01T00:28:09.339Z,7.96
2019-05-01T00:29:09.352Z,7.85
2019-05-01T00:30:09.352Z,7.82
2019-05-01T00:31:09.359Z,7.89
2019-05-01T00:32:09.368Z,7.89
2019-05-01T00:33:09.377Z,7.77
2019-05-01T00:34:09.376Z,7.69
2019-05-01T00:35:09.383Z,7.84
2019-05-01T00:36:09.396Z,7.75
2019-05-01T00:37:09.398Z,7.79
2019-05-01T00:38:09.404Z,7.84
2019-05-01T00:39:09.420Z,7.82
2019-05-01T00:40:09.430Z,7.78
2019-05-01T00:41:09.428Z,7.63
2019-05-01T00:42:09.431Z,7.77
2019-05-01T00:43:09.443Z,7.79
2019-05-01T00:44:09.445Z,7.71
2019-05-01T00:45:09.454Z,7.85
2019-05-01T00:46:09.461Z,7.85
2019-05-01T00:47:09.467Z,7.87
2019-05-01T00:48:09.473Z,8.00
2019-05-01T00:49:09.483Z,8.00
2019-05-01T00:50:09.485Z,8.08
2019-05-01T00:51:09.491Z,8.10
2019-05-01T00:52:09.505Z,7.96
2019-05-01T00:53:09.506Z,7.99
2019-05-01T00:54:09.514Z,8.03
2019-05-01T00:55:09.522Z,7.92
2019-05-01T00:56:09.526Z,8.00
2019-05-01T00:57:09.533Z,7.99
2019-05-01T00:58:09.540Z,7.99
2019-05-01T00:59:09.550Z,8.04
2019-05-01T01:00:09.554Z,8.02
2019-05-01T01:01:09.561Z,8.04
2019-05-01T01:02:09.563Z,8.07
2019-05-01T01:03:09.575Z,7.89
2019-05-01T01:04:09.578Z,8.04
2019-05-01T01:05:09.585Z,8.02
2019-05-01T01:06:09.585Z,7.99
2019-05-01T01:07:09.621Z,8.02
2019-05-01T01:08:09.605Z,8.04
2019-05-01T01:09:09.612Z,8.04
2019-05-01T01:10:09.620Z,7.99
2019-05-01T01:11:09.625Z,8.02
2019-05-01T01:12:09.634Z,8.02
2019-05-01T01:13:09.643Z,7.93
2019-05-01T01:14:09.644Z,7.97
2019-05-01T01:15:09.651Z,7.99
2019-05-01T01:16:09.665Z,7.89
2019-05-01T01:17:09.664Z,7.90
2019-05-01T01:18:09.669Z,7.89
2019-05-01T01:19:09.678Z,7.85
2019-05-01T01:20:09.686Z,7.78
2019-05-01T01:21:09.698Z,7.81
2019-05-01T01:22:09.696Z,7.71
2019-05-01T01:23:09.711Z,7.63
2019-05-01T01:24:09.709Z,7.69
2019-05-01T01:25:09.718Z,7.67
2019-05-01T01:26:09.721Z,7.59
2019-05-01T01:27:09.731Z,7.50
2019-05-01T01:28:09.735Z,7.45
2019-05-01T01:29:09.791Z,7.41
2019-05-01T01:30:09.754Z,7.41
2019-05-01T01:31:09.757Z,7.44
2019-05-01T01:32:09.765Z,7.37
2019-05-01T01:33:09.769Z,7.49
2019-05-01T01:34:09.774Z,7.45
2019-05-01T01:35:09.788Z,7.42
2019-05-01T01:36:09.790Z,7.50
2019-05-01T01:37:09.794Z,7.47
2019-05-01T01:38:09.806Z,7.45
2019-05-01T01:39:09.808Z,7.45
2019-05-01T01:40:09.812Z,7.40
2019-05-01T01:41:09.818Z,7.19
2019-05-01T01:42:09.824Z,7.22
2019-05-01T01:43:09.835Z,7.22
2019-05-01T01:44:09.840Z,7.20
2019-05-01T01:45:09.850Z,7.34
2019-05-01T01:46:09.852Z,7.35
2019-05-01T01:47:09.858Z,7.42
2019-05-01T01:48:09.870Z,7.40
2019-05-01T01:49:09.870Z,7.40
2019-05-01T01:50:09.877Z,7.41
2019-05-01T01:51:09.886Z,7.44
2019-05-01T01:52:09.890Z,7.45
2019-05-01T01:53:09.902Z,7.42
2019-05-01T01:54:09.901Z,7.45
2019-05-01T01:55:09.911Z,7.44
2019-05-01T01:56:09.920Z,7.47
2019-05-01T01:57:09.921Z,7.35
2019-05-01T01:58:09.930Z,7.32
2019-05-01T01:59:09.935Z,7.27
2019-05-01T02:00:09.941Z,7.27
2019-05-01T02:01:10.034Z,7.19
2019-05-01T02:02:09.952Z,7.09
2019-05-01T02:03:09.964Z,7.23
2019-05-01T02:04:09.967Z,7.24
2019-05-01T02:05:09.981Z,7.22
2019-05-01T02:06:09.983Z,7.20
2019-05-01T02:07:09.988Z,7.23
2019-05-01T02:08:09.997Z,7.15
2019-05-01T02:09:10.001Z,7.13
2019-05-01T02:10:10.015Z,7.15
2019-05-01T02:11:10.013Z,7.08
2019-05-01T02:12:10.022Z,7.07
2019-05-01T02:13:10.028Z,7.12
2019-05-01T02:14:10.032Z,7.24
2019-05-01T02:15:10.036Z,7.27
2019-05-01T02:16:10.040Z,7.24
2019-05-01T02:17:10.049Z,7.24
2019-05-01T02:18:10.060Z,7.26
2019-05-01T02:19:10.063Z,7.24
2019-05-01T02:20:10.070Z,7.17
2019-05-01T02:21:10.075Z,7.22
2019-05-01T02:22:10.087Z,7.27
2019-05-01T02:23:10.084Z,7.15
2019-05-01T02:24:10.096Z,7.22
2019-05-01T02:25:10.099Z,7.27
2019-05-01T02:26:10.108Z,7.08
2019-05-01T02:27:10.117Z,7.05
2019-05-01T02:28:10.119Z,6.99
2019-05-01T02:29:10.126Z,6.84
2019-05-01T02:30:10.140Z,6.90
2019-05-01T02:31:26.704Z,6.94
2019-05-01T02:32:10.147Z,6.87
2019-05-01T02:33:10.155Z,6.86
2019-05-01T02:34:10.159Z,6.84
2019-05-01T02:35:10.167Z,6.84
2019-05-01T02:36:10.168Z,6.86
2019-05-01T02:37:10.181Z,6.90
2019-05-01T02:38:10.183Z,6.86
2019-05-01T02:39:10.196Z,6.83
2019-05-01T02:40:10.196Z,6.87
2019-05-01T02:41:10.202Z,6.89
2019-05-01T02:42:10.206Z,6.91
2019-05-01T02:43:10.215Z,6.99
2019-05-01T02:44:10.221Z,6.86
2019-05-01T02:45:10.233Z,6.90
2019-05-01T02:46:10.232Z,6.89
2019-05-01T02:47:10.243Z,6.89
2019-05-01T02:48:10.244Z,6.83
2019-05-01T02:49:10.255Z,6.81
2019-05-01T02:50:10.264Z,6.72
2019-05-01T02:51:10.259Z,6.71
2019-05-01T02:52:10.269Z,6.68
2019-05-01T02:53:10.275Z,6.51
2019-05-01T02:54:17.945Z,6.68
2019-05-01T02:56:14.781Z,6.56
2019-05-01T02:57:14.772Z,6.54
2019-05-01T02:59:20.240Z,6.56
2019-05-01T03:00:20.242Z,6.50
2019-05-01T03:02:24.777Z,6.54
2019-05-01T03:03:24.756Z,6.51
2019-05-01T03:05:18.176Z,6.68
2019-05-01T03:06:18.158Z,6.51
2019-05-01T03:08:22.677Z,6.58
2019-05-01T03:09:22.668Z,6.63
2019-05-01T03:11:27.166Z,6.46
2019-05-01T03:12:27.156Z,6.44
2019-05-01T03:14:31.641Z,6.44
2019-05-01T03:15:31.631Z,6.47
2019-05-01T03:17:37.143Z,6.61
2019-05-01T03:18:37.133Z,6.72
2019-05-01T03:20:41.612Z,6.69
2019-05-01T03:21:41.607Z,6.79
2019-05-01T03:23:46.118Z,6.79
2019-05-01T03:24:46.115Z,6.80
2019-05-01T03:26:51.597Z,6.77
2019-05-01T03:27:51.590Z,6.76
2019-05-01T03:29:56.081Z,6.80
2019-05-01T03:30:56.109Z,6.76
2019-05-01T03:33:01.558Z,6.79
2019-05-01T03:34:01.552Z,6.79
2019-05-01T03:36:06.049Z,6.86
2019-05-01T03:37:06.038Z,6.87
2019-05-01T03:39:10.513Z,7.01
2019-05-01T03:40:12.353Z,6.99
2019-05-01T03:42:14.999Z,7.09
2019-05-01T03:43:15.008Z,7.19
2019-05-01T03:45:08.391Z,7.19
2019-05-01T03:46:08.418Z,7.23
2019-05-01T03:48:12.892Z,7.34
2019-05-01T03:49:12.883Z,7.34
2019-05-01T03:51:17.404Z,7.56
2019-05-01T03:52:17.396Z,7.66
2019-05-01T03:54:21.877Z,7.77
2019-05-01T03:55:21.876Z,7.79
2019-05-01T03:57:26.356Z,7.92
2019-05-01T03:58:26.349Z,7.96
2019-05-01T04:00:30.829Z,8.08
2019-05-01T04:01:30.829Z,8.04
2019-05-01T04:03:35.320Z,7.99
2019-05-01T04:04:35.310Z,8.03
2019-05-01T04:06:39.800Z,7.90
2019-05-01T04:07:39.792Z,7.90
2019-05-01T04:09:44.266Z,7.94
2019-05-01T04:10:44.265Z,7.90
2019-05-01T04:12:48.756Z,7.97
2019-05-01T04:13:48.744Z,8.02
2019-05-01T04:15:54.272Z,8.15
2019-05-01T04:16:54.266Z,8.11
2019-05-01T04:18:58.753Z,8.18
2019-05-01T04:19:58.748Z,8.10
2019-05-01T04:22:03.236Z,8.08
2019-05-01T04:23:03.236Z,8.03
2019-05-01T04:24:56.638Z,8.14
2019-05-01T04:25:56.639Z,8.12
2019-05-01T04:28:01.132Z,8.11
2019-05-01T04:29:01.127Z,8.15
2019-05-01T04:31:05.646Z,8.07
2019-05-01T04:32:05.636Z,8.07
2019-05-01T04:34:10.116Z,8.08
2019-05-01T04:35:10.106Z,8.08
2019-05-01T04:37:14.586Z,7.93
2019-05-01T04:38:14.584Z,7.99
2019-05-01T04:39:14.586Z,8.02
2019-05-01T04:40:18.520Z,7.97
2019-05-01T04:41:14.599Z,7.99
2019-05-01T04:42:14.609Z,8.08
2019-05-01T04:43:14.616Z,7.97
2019-05-01T04:44:14.622Z,7.97
2019-05-01T04:45:14.626Z,8.04
2019-05-01T04:46:14.632Z,8.18
2019-05-01T04:47:14.643Z,8.18
2019-05-01T04:48:14.652Z,8.15
2019-05-01T04:49:17.837Z,8.12
2019-05-01T04:50:14.657Z,8.12
2019-05-01T04:51:14.661Z,8.29
2019-05-01T04:52:14.666Z,8.20
2019-05-01T04:53:14.677Z,8.15
2019-05-01T04:54:14.683Z,8.26
2019-05-01T04:55:14.703Z,8.28
2019-05-01T04:56:14.695Z,8.25
2019-05-01T04:57:14.703Z,8.32
2019-05-01T04:58:14.709Z,8.39
2019-05-01T04:59:14.716Z,8.35
2019-05-01T05:00:14.720Z,8.40
2019-05-01T05:01:14.727Z,8.40
2019-05-01T05:02:14.739Z,8.37
2019-05-01T05:03:14.740Z,8.53
2019-05-01T05:04:14.745Z,8.55
2019-05-01T05:05:14.759Z,8.53
2019-05-01T05:06:14.759Z,8.57
2019-05-01T05:07:14.767Z,8.58
2019-05-01T05:08:14.773Z,8.62
2019-05-01T05:09:14.776Z,8.63
2019-05-01T05:10:14.783Z,8.51
2019-05-01T05:11:14.791Z,8.60
2019-05-01T05:12:14.798Z,8.62
2019-05-01T05:13:14.804Z,8.62
2019-05-01T05:14:14.812Z,8.60
2019-05-01T05:15:14.815Z,8.63
2019-05-01T05:16:14.826Z,8.65
2019-05-01T05:17:14.830Z,8.72
2019-05-01T05:18:14.841Z,8.75
2019-05-01T05:19:14.850Z,8.81
2019-05-01T05:20:14.849Z,8.79
2019-05-01T05:21:14.851Z,8.86
2019-05-01T05:22:16.544Z,8.83
2019-05-01T05:23:14.870Z,8.86
2019-05-01T05:24:14.880Z,8.83
2019-05-01T05:25:14.882Z,8.91
2019-05-01T05:26:14.884Z,8.90
2019-05-01T05:27:14.897Z,8.94
2019-05-01T05:28:14.902Z,8.83
2019-05-01T05:29:14.911Z,8.99
2019-05-01T05:30:14.916Z,8.87
2019-05-01T05:31:14.926Z,8.94
2019-05-01T05:32:14.927Z,8.83
2019-05-01T05:33:18.604Z,8.99
2019-05-01T05:34:17.936Z,8.94
2019-05-01T05:35:14.951Z,9.02
2019-05-01T05:36:14.955Z,9.04
2019-05-01T05:37:14.969Z,9.12
2019-05-01T05:38:14.969Z,9.09
2019-05-01T05:39:14.974Z,9.05
2019-05-01T05:40:14.977Z,9.13
2019-05-01T05:41:14.994Z,9.05
2019-05-01T05:42:14.995Z,9.18
2019-05-01T05:43:15.001Z,9.02
2019-05-01T05:44:15.010Z,9.25
2019-05-01T05:45:15.010Z,9.27
2019-05-01T05:46:15.020Z,9.23
2019-05-01T05:47:15.026Z,9.35
2019-05-01T05:48:15.031Z,9.35
2019-05-01T05:49:15.042Z,9.35
2019-05-01T05:50:15.049Z,9.45
2019-05-01T05:51:15.056Z,9.38
2019-05-01T05:52:15.060Z,9.48
2019-05-01T05:53:15.069Z,9.50
2019-05-01T05:54:15.070Z,9.58
2019-05-01T05:55:15.082Z,9.71
2019-05-01T05:56:15.088Z,9.66
2019-05-01T05:57:15.096Z,9.67
2019-05-01T05:58:15.110Z,9.81
2019-05-01T05:59:15.111Z,9.83
2019-05-01T06:00:15.109Z,9.83
2019-05-01T06:01:15.125Z,9.91
2019-05-01T06:02:15.130Z,9.93
2019-05-01T06:03:15.140Z,9.97
2019-05-01T06:04:15.142Z,9.96
2019-05-01T06:05:15.154Z,10.04
2019-05-01T06:06:15.180Z,10.10
2019-05-01T06:07:15.167Z,10.10
2019-05-01T06:08:15.169Z,10.14
2019-05-01T06:09:15.615Z,10.17
2019-05-01T06:10:18.459Z,10.14
2019-05-01T06:11:15.188Z,10.24
2019-05-01T06:12:15.196Z,10.21
2019-05-01T06:13:18.016Z,10.21
2019-05-01T06:14:15.210Z,10.30
2019-05-01T06:15:15.219Z,10.30
2019-05-01T06:16:16.339Z,10.26
2019-05-01T06:17:15.240Z,10.25
2019-05-01T06:18:15.250Z,10.33
2019-05-01T06:19:16.317Z,10.32
2019-05-01T06:20:15.248Z,10.33
2019-05-01T06:21:15.262Z,10.52
2019-05-01T06:22:15.270Z,10.43
2019-05-01T06:23:15.780Z,10.42
2019-05-01T06:24:15.283Z,10.43
2019-05-01T06:25:22.444Z,10.43
2019-05-01T06:26:15.297Z,10.56
2019-05-01T06:27:15.301Z,10.52
2019-05-01T06:28:15.305Z,10.58
2019-05-01T06:29:15.315Z,10.58
2019-05-01T06:30:15.322Z,10.73
2019-05-01T06:31:17.800Z,10.77
2019-05-01T06:32:15.343Z,10.78
2019-05-01T06:33:15.344Z,10.86
2019-05-01T06:34:15.354Z,10.80
2019-05-01T06:35:15.356Z,10.89
2019-05-01T06:36:15.366Z,10.96
2019-05-01T06:37:15.393Z,10.99
2019-05-01T06:38:15.383Z,11.06
2019-05-01T06:39:15.389Z,11.17
2019-05-01T06:40:18.735Z,11.24
2019-05-01T06:41:15.400Z,11.24
2019-05-01T06:42:16.960Z,11.31
2019-05-01T06:43:15.419Z,11.31
2019-05-01T06:44:15.426Z,11.35
2019-05-01T06:45:16.801Z,11.52
2019-05-01T06:46:15.438Z,11.46
2019-05-01T06:47:15.441Z,11.47
2019-05-01T06:48:17.791Z,11.54
2019-05-01T06:49:15.459Z,11.59
2019-05-01T06:50:15.465Z,11.65
2019-05-01T06:51:17.817Z,11.74
2019-05-01T06:52:15.478Z,11.77
2019-05-01T06:53:15.490Z,11.82
2019-05-01T06:54:16.495Z,11.78
2019-05-01T06:55:15.512Z,11.87
2019-05-01T06:56:15.510Z,11.93
2019-05-01T06:57:15.516Z,11.96
2019-05-01T06:58:20.379Z,11.90
2019-05-01T06:59:15.533Z,11.86
2019-05-01T07:00:15.542Z,11.90
2019-05-01T07:01:18.834Z,11.77
2019-05-01T07:02:16.095Z,11.72
2019-05-01T07:03:15.557Z,11.70
2019-05-01T07:04:15.571Z,11.65
2019-05-01T07:05:16.483Z,11.67
2019-05-01T07:06:15.584Z,11.65
2019-05-01T07:07:24.997Z,11.61
2019-05-01T07:08:24.315Z,11.53
2019-05-01T07:09:27.481Z,11.52
2019-05-01T07:10:15.610Z,11.50
2019-05-01T07:11:16.623Z,11.56
2019-05-01T07:12:15.631Z,11.54
2019-05-01T07:13:15.638Z,11.61
2019-05-01T07:14:17.378Z,11.64
2019-05-01T07:15:15.654Z,11.74
2019-05-01T07:16:15.656Z,11.67
2019-05-01T07:17:15.664Z,11.68
2019-05-01T07:18:18.698Z,11.68
2019-05-01T07:19:15.679Z,11.75
2019-05-01T07:20:16.672Z,11.75
2019-05-01T07:21:15.692Z,11.75
2019-05-01T07:22:15.697Z,11.80
2019-05-01T07:23:17.481Z,11.71
2019-05-01T07:24:15.717Z,11.82
2019-05-01T07:25:15.723Z,11.75
2019-05-01T07:26:15.730Z,11.80
2019-05-01T07:27:18.802Z,11.75
2019-05-01T07:28:15.744Z,11.74
2019-05-01T07:29:15.752Z,11.90
2019-05-01T07:30:19.307Z,11.75
2019-05-01T07:31:15.764Z,11.85
2019-05-01T07:32:15.774Z,11.87
2019-05-01T07:33:16.763Z,11.93
2019-05-01T07:34:16.923Z,11.87
2019-05-01T07:35:15.797Z,12.02
2019-05-01T07:36:16.519Z,11.87
2019-05-01T07:37:15.812Z,11.90
2019-05-01T07:38:15.817Z,11.97
2019-05-01T07:39:15.901Z,12.05
2019-05-01T07:40:15.831Z,12.09
2019-05-01T07:41:15.839Z,12.01
2019-05-01T07:42:15.847Z,12.02
2019-05-01T07:43:19.018Z,11.99
2019-05-01T07:44:15.856Z,12.02
2019-05-01T07:45:15.867Z,12.08
2019-05-01T07:46:18.342Z,12.09
2019-05-01T07:47:15.882Z,12.05
2019-05-01T07:48:15.890Z,12.11
2019-05-01T07:49:17.712Z,12.08
2019-05-01T07:50:15.906Z,12.15
2019-05-01T07:51:15.914Z,12.11
2019-05-01T07:52:17.201Z,12.16
2019-05-01T07:53:15.925Z,12.26
2019-05-01T07:54:15.935Z,12.30
2019-05-01T07:55:18.160Z,12.34
2019-05-01T07:56:17.269Z,12.29
2019-05-01T07:57:15.961Z,12.41
2019-05-01T07:58:17.972Z,12.38
2019-05-01T07:59:15.971Z,12.38
2019-05-01T08:00:15.979Z,12.46
2019-05-01T08:01:18.279Z,12.46
2019-05-01T08:02:15.993Z,12.42
2019-05-01T08:03:16.002Z,12.45
2019-05-01T08:04:19.746Z,12.51
2019-05-01T08:05:16.018Z,12.48
2019-05-01T08:06:20.845Z,12.46
2019-05-01T08:07:16.030Z,12.51
2019-05-01T08:08:16.042Z,12.57
2019-05-01T08:09:16.481Z,12.57
2019-05-01T08:10:16.053Z,12.71
2019-05-01T08:11:16.064Z,12.64
2019-05-01T08:12:19.007Z,12.71
2019-05-01T08:13:16.076Z,12.71
2019-05-01T08:14:18.414Z,12.79
2019-05-01T08:15:16.090Z,12.75
2019-05-01T08:16:16.096Z,12.81
2019-05-01T08:17:18.151Z,12.84
2019-05-01T08:18:16.113Z,12.88
2019-05-01T08:19:16.119Z,12.88
2019-05-01T08:20:16.817Z,13.02
2019-05-01T08:21:16.136Z,13.02
2019-05-01T08:22:16.151Z,12.96
2019-05-01T08:23:16.146Z,13.02
2019-05-01T08:24:18.026Z,13.07
2019-05-01T08:25:16.166Z,13.20
2019-05-01T08:26:16.176Z,13.20
2019-05-01T08:27:20.192Z,13.18
2019-05-01T08:28:16.200Z,13.21
2019-05-01T08:29:16.202Z,13.18
2019-05-01T08:30:17.370Z,13.27
2019-05-01T08:31:16.209Z,13.32
2019-05-01T08:32:16.219Z,13.37
2019-05-01T08:33:16.231Z,13.32
2019-05-01T08:34:16.228Z,13.32
2019-05-01T08:35:16.244Z,13.44
2019-05-01T08:36:16.258Z,13.40
2019-05-01T08:37:17.899Z,13.38
2019-05-01T08:38:16.269Z,13.44
2019-05-01T08:39:16.276Z,13.54
2019-05-01T08:40:20.515Z,13.47
2019-05-01T08:41:16.289Z,13.58
2019-05-01T08:42:16.299Z,13.69
2019-05-01T08:43:18.135Z,13.76
2019-05-01T08:44:16.317Z,13.76
2019-05-01T08:45:16.319Z,13.92
2019-05-01T08:46:16.638Z,13.88
2019-05-01T08:47:16.332Z,14.01
2019-05-01T08:48:16.344Z,13.88
2019-05-01T08:49:16.353Z,13.98
2019-05-01T08:50:19.833Z,13.92
2019-05-01T08:51:16.364Z,13.77
2019-05-01T08:52:16.370Z,14.02
2019-05-01T08:53:18.155Z,14.01
2019-05-01T08:54:23.621Z,13.98
2019-05-01T08:56:21.916Z,14.04
2019-05-01T08:57:20.902Z,13.99
2019-05-01T08:59:25.839Z,14.14
2019-05-01T09:00:24.873Z,14.13
2019-05-01T09:02:28.891Z,14.14
2019-05-01T09:03:28.889Z,14.25
2019-05-01T09:04:30.603Z,14.29
2019-05-01T09:05:32.295Z,14.29
2019-05-01T09:06:34.938Z,14.31
2019-05-01T09:07:28.937Z,14.44
2019-05-01T09:08:32.041Z,14.39
2019-05-01T09:09:28.953Z,14.50
2019-05-01T09:10:28.947Z,14.57
2019-05-01T09:11:31.747Z,14.61
2019-05-01T09:12:28.956Z,14.69
2019-05-01T09:13:28.966Z,14.78
2019-05-01T09:14:29.812Z,14.84
2019-05-01T09:15:28.978Z,14.81
2019-05-01T09:16:30.186Z,14.81
2019-05-01T09:17:28.997Z,14.80
2019-05-01T09:18:29.008Z,14.72
2019-05-01T09:19:29.017Z,14.72
2019-05-01T09:20:29.024Z,14.84
2019-05-01T09:21:29.032Z,14.91
2019-05-01T09:22:29.042Z,15.01
2019-05-01T09:23:29.049Z,14.98
2019-05-01T09:24:29.437Z,15.06
2019-05-01T09:25:30.871Z,15.05
2019-05-01T09:26:29.075Z,15.11
2019-05-01T09:27:29.861Z,15.11
2019-05-01T09:28:29.087Z,15.09
2019-05-01T09:29:29.095Z,15.12
2019-05-01T09:30:29.103Z,15.24
2019-05-01T09:31:33.920Z,15.36
2019-05-01T09:32:29.124Z,15.42
2019-05-01T09:33:30.806Z,15.36
2019-05-01T09:34:29.136Z,15.35
2019-05-01T09:35:29.145Z,15.38
2019-05-01T09:36:29.153Z,15.36
2019-05-01T09:37:29.164Z,15.43
2019-05-01T09:38:29.171Z,15.42
2019-05-01T09:39:29.176Z,15.49
2019-05-01T09:40:29.190Z,15.48
2019-05-01T09:41:38.072Z,15.54
2019-05-01T09:42:29.205Z,15.59
2019-05-01T09:43:31.019Z,15.66
2019-05-01T09:44:29.223Z,15.59
2019-05-01T09:45:29.231Z,15.63
2019-05-01T09:46:29.236Z,15.49
2019-05-01T09:47:29.245Z,15.36
2019-05-01T09:48:29.250Z,15.41
2019-05-01T09:49:29.271Z,15.27
2019-05-01T09:50:30.469Z,15.41
2019-05-01T09:51:29.282Z,15.33
2019-05-01T09:52:29.295Z,15.46
2019-05-01T09:53:29.638Z,15.36
2019-05-01T09:54:29.303Z,15.43
2019-05-01T09:55:29.311Z,15.41
2019-05-01T09:56:29.323Z,15.27
2019-05-01T09:57:29.330Z,15.28
2019-05-01T09:58:29.340Z,15.31
2019-05-01T09:59:29.347Z,15.38
2019-05-01T10:00:29.356Z,15.33
2019-05-01T10:01:32.814Z,15.28
2019-05-01T10:02:29.374Z,15.27
2019-05-01T10:03:29.380Z,15.28
2019-05-01T10:04:30.292Z,15.38
2019-05-01T10:05:29.434Z,15.31
2019-05-01T10:06:29.406Z,15.35
2019-05-01T10:07:30.838Z,15.41
2019-05-01T10:08:29.419Z,15.56
2019-05-01T10:09:29.431Z,15.74
2019-05-01T10:10:30.579Z,15.79
2019-05-01T10:11:29.448Z,15.84
2019-05-01T10:12:29.494Z,15.84
2019-05-01T10:13:29.462Z,15.78
2019-05-01T10:14:31.578Z,15.94
2019-05-01T10:15:29.485Z,15.89
2019-05-01T10:16:29.499Z,15.96
2019-05-01T10:17:29.503Z,16.04
2019-05-01T10:18:29.508Z,16.00
2019-05-01T10:19:29.515Z,16.09
2019-05-01T10:20:29.530Z,16.16
2019-05-01T10:21:29.537Z,16.18
2019-05-01T10:22:32.983Z,16.23
2019-05-01T10:23:29.553Z,16.23
2019-05-01T10:24:31.939Z,16.35
2019-05-01T10:25:29.564Z,16.44
2019-05-01T10:26:29.574Z,16.41
2019-05-01T10:27:30.895Z,16.55
2019-05-01T10:28:29.599Z,16.52
2019-05-01T10:29:29.604Z,16.53
2019-05-01T10:30:31.722Z,16.67
2019-05-01T10:31:29.626Z,16.58
2019-05-01T10:32:29.632Z,16.58
2019-05-01T10:33:32.705Z,16.53
2019-05-01T10:34:29.653Z,16.55
2019-05-01T10:35:41.842Z,16.49
2019-05-01T10:36:29.666Z,16.53
2019-05-01T10:37:33.586Z,16.45
2019-05-01T10:38:29.698Z,16.50
2019-05-01T10:39:30.275Z,16.44
2019-05-01T10:40:32.252Z,16.63
2019-05-01T10:41:29.707Z,16.42
2019-05-01T10:42:29.720Z,16.49
2019-05-01T10:43:29.732Z,16.56
2019-05-01T10:44:29.741Z,16.62
2019-05-01T10:45:29.746Z,16.75
2019-05-01T10:46:29.754Z,16.83
2019-05-01T10:47:29.761Z,16.98
2019-05-01T10:48:29.772Z,16.99
2019-05-01T10:49:29.799Z,17.08
2019-05-01T10:50:29.790Z,17.20
2019-05-01T10:51:29.797Z,17.22
2019-05-01T10:52:29.806Z,17.18
2019-05-01T10:53:29.818Z,17.18
2019-05-01T10:54:29.826Z,17.22
2019-05-01T10:55:29.838Z,17.18
2019-05-01T10:56:29.853Z,17.23
2019-05-01T10:57:29.856Z,17.25
2019-05-01T10:58:29.863Z,17.33
2019-05-01T10:59:29.869Z,17.50
2019-05-01T11:00:29.885Z,17.59
2019-05-01T11:01:29.887Z,17.59
2019-05-01T11:02:29.900Z,17.81
2019-05-01T11:03:29.910Z,17.92
2019-05-01T11:04:29.917Z,17.91
2019-05-01T11:05:29.927Z,18.10
2019-05-01T11:06:29.937Z,18.25
2019-05-01T11:07:29.946Z,18.57
2019-05-01T11:08:29.955Z,18.94
2019-05-01T11:09:29.964Z,19.54
2019-05-01T11:10:29.976Z,20.23
2019-05-01T11:11:29.984Z,20.98
2019-05-01T11:12:29.998Z,21.88
2019-05-01T11:13:30.004Z,22.72
2019-05-01T11:14:30.021Z,23.55
2019-05-01T11:15:30.034Z,24.29
2019-05-01T11:16:30.045Z,24.90
2019-05-01T11:17:30.066Z,25.61
2019-05-01T11:18:30.078Z,26.46
2019-05-01T11:19:30.089Z,26.99
2019-05-01T11:20:30.101Z,27.53
2019-05-01T11:21:30.111Z,28.13
2019-05-01T11:22:30.131Z,28.56
2019-05-01T11:23:30.149Z,28.97
2019-05-01T11:24:30.163Z,29.43
2019-05-01T11:25:30.180Z,29.79
2019-05-01T11:26:30.197Z,29.78
2019-05-01T11:27:30.225Z,30.00
2019-05-01T11:28:30.230Z,30.16
2019-05-01T11:29:30.246Z,30.26
2019-05-01T11:30:30.266Z,30.23
2019-05-01T11:31:30.283Z,30.49
2019-05-01T11:32:30.305Z,30.67
2019-05-01T11:33:30.312Z,30.96
2019-05-01T11:34:30.342Z,31.05
2019-05-01T11:35:30.359Z,31.15
2019-05-01T11:36:30.372Z,31.23
2019-05-01T11:37:30.392Z,31.27
2019-05-01T11:38:30.413Z,31.40
2019-05-01T11:39:30.434Z,31.36
2019-05-01T11:40:30.452Z,31.38
2019-05-01T11:41:30.488Z,31.38
2019-05-01T11:42:30.490Z,31.36
2019-05-01T11:43:30.511Z,31.36
2019-05-01T11:44:30.530Z,31.50
2019-05-01T11:45:30.550Z,31.67
2019-05-01T11:46:30.574Z,31.76
2019-05-01T11:47:30.589Z,31.50
2019-05-01T11:48:32.034Z,31.39
2019-05-01T11:49:30.628Z,31.43
2019-05-01T11:50:30.653Z,31.43
2019-05-01T11:51:30.669Z,31.43
2019-05-01T11:52:30.693Z,31.65
2019-05-01T11:53:30.711Z,31.96
2019-05-01T11:54:30.731Z,31.98
2019-05-01T11:55:30.752Z,32.14
2019-05-01T11:56:30.769Z,32.36
2019-05-01T11:57:30.792Z,32.48
2019-05-01T11:58:30.806Z,32.49
2019-05-01T11:59:32.744Z,32.54
2019-05-01T12:00:30.855Z,32.59
2019-05-01T12:01:30.879Z,32.67
2019-05-01T12:02:30.900Z,32.89
2019-05-01T12:03:30.916Z,32.85
2019-05-01T12:04:30.943Z,33.03
2019-05-01T12:05:30.960Z,33.14
2019-05-01T12:06:30.976Z,33.42
2019-05-01T12:07:30.996Z,33.42
2019-05-01T12:08:31.020Z,33.60
2019-05-01T12:09:31.044Z,33.61
2019-05-01T12:10:31.063Z,33.61
2019-05-01T12:11:31.091Z,33.65
2019-05-01T12:12:31.108Z,33.65
2019-05-01T12:13:43.254Z,33.61
2019-05-01T12:14:31.153Z,33.61
2019-05-01T12:15:31.170Z,33.73
2019-05-01T12:16:31.192Z,33.71
2019-05-01T12:17:31.209Z,33.76
2019-05-01T12:18:31.235Z,33.68
2019-05-01T12:19:31.259Z,33.86
2019-05-01T12:20:31.278Z,34.11
2019-05-01T12:21:31.300Z,34.27
2019-05-01T12:22:31.318Z,34.44
2019-05-01T12:23:31.339Z,34.24
2019-05-01T12:24:31.364Z,34.17
2019-05-01T12:25:31.383Z,34.14
2019-05-01T12:26:31.404Z,34.26
2019-05-01T12:27:31.427Z,34.34
2019-05-01T12:28:31.453Z,34.19
2019-05-01T12:29:31.469Z,34.27
2019-05-01T12:30:31.495Z,34.07
2019-05-01T12:31:31.512Z,33.90
2019-05-01T12:32:31.538Z,33.92
2019-05-01T12:33:31.554Z,33.58
2019-05-01T12:34:31.576Z,33.64
2019-05-01T12:35:31.596Z,33.36
2019-05-01T12:36:36.311Z,33.49
2019-05-01T12:37:31.642Z,33.74
2019-05-01T12:38:31.662Z,33.82
2019-05-01T12:39:31.686Z,33.60
2019-05-01T12:40:31.708Z,33.51
2019-05-01T12:41:31.730Z,33.55
2019-05-01T12:42:31.745Z,33.34
2019-05-01T12:43:31.771Z,33.27
2019-05-01T12:44:31.795Z,33.22
2019-05-01T12:45:31.814Z,33.11
2019-05-01T12:46:31.833Z,32.95
2019-05-01T12:47:31.855Z,32.22
2019-05-01T12:48:31.875Z,32.03
2019-05-01T12:49:31.899Z,31.80
2019-05-01T12:50:31.918Z,31.43
2019-05-01T12:51:31.943Z,31.28
2019-05-01T12:52:31.958Z,31.31
2019-05-01T12:53:31.977Z,31.21
2019-05-01T12:54:31.997Z,31.72
2019-05-01T12:55:32.023Z,32.18
2019-05-01T12:56:32.042Z,32.54
2019-05-01T12:57:32.056Z,32.79
2019-05-01T12:58:32.080Z,32.96
2019-05-01T12:59:32.100Z,33.26
2019-05-01T13:00:32.122Z,33.51
2019-05-01T13:01:32.140Z,33.83
2019-05-01T13:02:32.162Z,33.87
2019-05-01T13:03:32.183Z,34.11
2019-05-01T13:04:32.200Z,34.16
2019-05-01T13:05:32.220Z,34.29
2019-05-01T13:06:32.244Z,34.35
2019-05-01T13:07:32.261Z,33.41
2019-05-01T13:08:32.278Z,32.86
2019-05-01T13:09:32.297Z,32.49
2019-05-01T13:10:32.319Z,32.29
2019-05-01T13:11:32.339Z,31.80
2019-05-01T13:12:32.353Z,31.57
2019-05-01T13:13:32.374Z,31.33
2019-05-01T13:14:32.392Z,31.20
2019-05-01T13:15:32.420Z,30.68
2019-05-01T13:16:32.437Z,30.36
2019-05-01T13:17:32.451Z,29.52
2019-05-01T13:18:32.479Z,29.38
2019-05-01T13:19:32.535Z,29.43
2019-05-01T13:20:32.502Z,29.56
2019-05-01T13:21:32.539Z,29.56
2019-05-01T13:22:32.542Z,29.62
2019-05-01T13:23:32.560Z,29.68
2019-05-01T13:24:32.583Z,29.75
2019-05-01T13:25:32.598Z,29.41
2019-05-01T13:26:32.611Z,29.35
2019-05-01T13:27:32.634Z,29.35
2019-05-01T13:28:32.653Z,29.38
2019-05-01T13:29:32.664Z,29.55
2019-05-01T13:30:32.687Z,29.56
2019-05-01T13:31:32.704Z,29.77
2019-05-01T13:32:32.725Z,29.79
2019-05-01T13:33:32.745Z,29.47
2019-05-01T13:34:32.754Z,29.47
2019-05-01T13:35:32.772Z,29.25
2019-05-01T13:36:32.795Z,29.04
2019-05-01T13:37:32.807Z,29.06
2019-05-01T13:38:32.825Z,29.22
2019-05-01T13:39:32.842Z,29.01
2019-05-01T13:40:32.861Z,29.00
2019-05-01T13:41:32.878Z,29.06
2019-05-01T13:42:32.892Z,29.13